Map

Track Data

SID SEASON NUMBER BASIN SUBBASIN NAME ISO_TIME NATURE LAT LON WMO_WIND WMO_PRES WMO_AGENCY TRACK_TYPE DIST2LAND LANDFALL IFLAG USA_AGENCY USA_ATCF_ID USA_LAT USA_LON USA_RECORD USA_STATUS USA_WIND USA_PRES USA_SSHS USA_R34_NE USA_R34_SE USA_R34_SW USA_R34_NW USA_R50_NE USA_R50_SE USA_R50_SW USA_R50_NW USA_R64_NE USA_R64_SE USA_R64_SW USA_R64_NW USA_POCI USA_ROCI USA_RMW USA_EYE TOKYO_LAT TOKYO_LON TOKYO_GRADE TOKYO_WIND TOKYO_PRES TOKYO_R50_DIR TOKYO_R50_LONG TOKYO_R50_SHORT TOKYO_R30_DIR TOKYO_R30_LONG TOKYO_R30_SHORT TOKYO_LAND CMA_LAT CMA_LON CMA_CAT CMA_WIND CMA_PRES HKO_LAT HKO_LON HKO_CAT HKO_WIND HKO_PRES NEWDELHI_LAT NEWDELHI_LON NEWDELHI_GRADE NEWDELHI_WIND NEWDELHI_PRES NEWDELHI_CI NEWDELHI_DP NEWDELHI_POCI REUNION_LAT REUNION_LON REUNION_TYPE REUNION_WIND REUNION_PRES REUNION_TNUM REUNION_CI REUNION_RMW REUNION_R34_NE REUNION_R34_SE REUNION_R34_SW REUNION_R34_NW REUNION_R50_NE REUNION_R50_SE REUNION_R50_SW REUNION_R50_NW REUNION_R64_NE REUNION_R64_SE REUNION_R64_SW REUNION_R64_NW BOM_LAT BOM_LON BOM_TYPE BOM_WIND BOM_PRES BOM_TNUM BOM_CI BOM_RMW BOM_R34_NE BOM_R34_SE BOM_R34_SW BOM_R34_NW BOM_R50_NE BOM_R50_SE BOM_R50_SW BOM_R50_NW BOM_R64_NE BOM_R64_SE BOM_R64_SW BOM_R64_NW BOM_ROCI BOM_POCI BOM_EYE BOM_POS_METHOD BOM_PRES_METHOD NADI_LAT NADI_LON NADI_CAT NADI_WIND NADI_PRES WELLINGTON_LAT WELLINGTON_LON WELLINGTON_WIND WELLINGTON_PRES DS824_LAT DS824_LON DS824_STAGE DS824_WIND DS824_PRES TD9636_LAT TD9636_LON TD9636_STAGE TD9636_WIND TD9636_PRES TD9635_LAT TD9635_LON TD9635_WIND TD9635_PRES TD9635_ROCI NEUMANN_LAT NEUMANN_LON NEUMANN_CLASS NEUMANN_WIND NEUMANN_PRES MLC_LAT MLC_LON MLC_CLASS MLC_WIND MLC_PRES USA_GUST BOM_GUST BOM_GUST_PER REUNION_GUST REUNION_GUST_PER USA_SEAHGT USA_SEARAD_NE USA_SEARAD_SE USA_SEARAD_SW USA_SEARAD_NW STORM_SPEED STORM_DIR
1963013S13149 1963 5 SP EA NOT_NAMED 1963-01-12 17:00:00 NR -13.3000 149.000 1003 bom main 317 317 ______O___O___ -1 -13.3000 149.000 1003 -13.3000 149.000 1 10 17 212
1963013S13149 1963 5 SP EA NOT_NAMED 1963-01-12 18:00:00 TS -13.5348 148.847 main 346 346 O_____P__OP___ jtwc_sh SH161963 -13.6000 148.800 10 -1 -13.4818 148.850 1003 -13.5000 148.900 TC 25 1003 -13.5401 148.863 1 10 16 211
1963013S13149 1963 5 SP EA NOT_NAMED 1963-01-12 21:00:00 TS -14.2044 148.443 main 345 310 P_____P__PP___ SH161963 -14.3153 148.398 12 -1 -14.0582 148.427 1004 -14.1277 148.508 TC 22 1004 -14.2539 148.473 1 11 15 208
1963013S13149 1963 5 SP EA NOT_NAMED 1963-01-12 23:00:00 TS -14.6611 148.222 1005 bom main 308 293 P_____O__PP___ SH161963 -14.7770 148.181 14 -1 -14.5000 148.200 1005 -14.5682 148.288 TC 20 1004 -14.7180 148.255 1 12 15 203
1963013S13149 1963 5 SP EA NOT_NAMED 1963-01-13 00:00:00 TS -14.8981 148.135 main 293 275 O_____P__OP___ jtwc_sh SH161963 -15.0000 148.100 15 -1 -14.7459 148.111 1004 -14.8000 148.200 TC 20 1005 -14.9447 148.164 1 12 14 193
1963013S13149 1963 5 SP EA NOT_NAMED 1963-01-13 03:00:00 TS -15.5817 148.002 main 273 250 P_____P__PP___ SH161963 -15.6298 147.995 15 -1 -15.5231 147.971 1003 -15.5298 148.053 TC 22 1003 -15.5959 147.999 1 14 13 185
1963013S13149 1963 5 SP EA NOT_NAMED 1963-01-13 05:00:00 TS -16.0051 148.029 1002 bom main 250 245 P_____O__PO___ SH161963 -16.0166 148.042 15 -1 -16.0000 148.000 1002 -15.9925 148.061 TC 24 1002 -16.0000 148.000 1 15 13 174
1963013S13149 1963 5 SP EA NOT_NAMED 1963-01-13 06:00:00 TS -16.1984 148.078 main 251 240 O_____P__OP___ jtwc_sh SH161963 -16.2000 148.100 15 -1 -16.2005 148.051 1001 -16.2000 148.100 TC 25 1002 -16.1913 148.040 1 15 12 156
1963013S13149 1963 5 SP EA NOT_NAMED 1963-01-13 09:00:00 TS -16.7201 148.361 main 256 253 P_____P__PP___ SH161963 -16.7377 148.412 15 -1 -16.7097 148.348 1000 -16.6950 148.340 TC 27 1001 -16.7205 148.292 1 15 12 148
1963013S13149 1963 5 SP EA NOT_NAMED 1963-01-13 11:00:00 TS -17.0232 148.613 1000 bom main 269 269 P_____O__PP___ SH161963 -17.0558 148.676 15 -1 -17.0000 148.600 1000 -16.9688 148.576 TC 29 1000 -17.0357 148.534 1 16 12 141
1963013S13149 1963 5 SP EA NOT_NAMED 1963-01-13 12:00:00 TS -17.1669 148.738 main 276 271 O_____P__OP___ jtwc_sh SH161963 -17.2000 148.800 15 -1 -17.1527 148.721 1000 -17.1000 148.700 TC 30 1000 -17.1820 148.667 1 16 11 141
1963013S13149 1963 5 SP EA NOT_NAMED 1963-01-13 15:00:00 TS -17.5697 149.080 main 269 260 P_____P__PP___ SH161963 -17.5874 149.080 17 -1 -17.5680 149.093 1000 -17.5301 149.080 TC 30 1000 -17.5754 149.067 1 17 10 141
1963013S13149 1963 5 SP EA NOT_NAMED 1963-01-13 17:00:00 TS -17.7983 149.275 1001 bom main 267 257 P_____O__PO___ SH161963 -17.8026 149.233 19 -1 -17.8000 149.300 1001 -17.7865 149.309 TC 30 1000 -17.8000 149.300 1 18 8 142
1963013S13149 1963 5 SP EA NOT_NAMED 1963-01-13 18:00:00 TS -17.9023 149.350 main 257 237 O_____P__OP___ jtwc_sh SH161963 -17.9000 149.300 20 -1 -17.9030 149.376 1001 -17.9000 149.400 TC 30 1001 -17.9087 149.373 1 18 7 149
1963013S13149 1963 5 SP EA NOT_NAMED 1963-01-13 21:00:00 TS -18.1739 149.512 main 237 234 P_____P__PP___ SH161963 -18.1725 149.473 20 -1 -18.1574 149.530 1002 -18.1799 149.538 TC 27 1002 -18.1870 149.547 1 18 6 152
1963013S13149 1963 5 SP EA NOT_NAMED 1963-01-13 23:00:00 TS -18.3250 149.587 1003 bom main 234 225 P_____O__PP___ SH161963 -18.3276 149.561 20 -1 -18.3000 149.600 1003 -18.3302 149.580 TC 25 1002 -18.3396 149.633 1 19 5 154
1963013S13149 1963 5 SP EA NOT_NAMED 1963-01-14 00:00:00 TS -18.3966 149.622 main 225 212 O_____P__OP___ jtwc_sh SH161963 -18.4000 149.600 20 -1 -18.3750 149.639 1002 -18.4000 149.600 TC 25 1003 -18.4081 149.669 1 19 5 155
1963013S13149 1963 5 SP EA NOT_NAMED 1963-01-14 03:00:00 TS -18.6031 149.725 main 212 202 P_____P__PP___ SH161963 -18.6150 149.715 20 -1 -18.5800 149.739 1001 -18.6150 149.700 TC 27 1001 -18.5906 149.755 1 19 4 155
1963013S13149 1963 5 SP EA NOT_NAMED 1963-01-14 05:00:00 TS -18.7250 149.783 1000 bom main 207 197 P_____O__PO___ SH161963 -18.7417 149.775 20 -1 -18.7000 149.800 1000 -18.7417 149.767 TC 29 1000 -18.7000 149.800 1 20 4 157
1963013S13149 1963 5 SP EA NOT_NAMED 1963-01-14 06:00:00 TS -18.7817 149.812 main 197 188 O_____P__OP___ jtwc_sh SH161963 -18.8000 149.800 20 -1 -18.7557 149.839 1000 -18.8000 149.800 TC 30 1000 -18.7530 149.820 1 19 4 153
1963013S13149 1963 5 SP EA NOT_NAMED 1963-01-14 09:00:00 TS -18.9365 149.895 main 194 185 P_____P__PP___ SH161963 -18.9575 149.857 20 -1 -18.9054 149.949 1000 -18.9650 149.915 TC 30 1000 -18.9076 149.876 1 19 3 154
1963013S13149 1963 5 SP EA NOT_NAMED 1963-01-14 11:00:00 TS -19.0298 149.944 1001 bom main 185 183 P_____O__PP___ SH161963 -19.0532 149.887 20 -1 -19.0000 150.000 1001 -19.0583 149.978 TC 30 1000 -19.0077 149.910 1 19 3 155
1963013S13149 1963 5 SP EA NOT_NAMED 1963-01-14 12:00:00 TS -19.0755 149.972 main 183 175 O_____P__OP___ jtwc_sh SH161963 -19.1000 149.900 20 -1 -19.0526 150.014 1001 -19.1000 150.000 TC 30 1001 -19.0570 149.926 1 18 3 162
1963013S13149 1963 5 SP EA NOT_NAMED 1963-01-14 15:00:00 TS -19.2067 150.009 main 175 168 ______P__PP___ SH161963 -1 -19.2079 150.019 1001 -19.2075 150.020 TC 30 1001 -19.2033 149.971 1 18 3 169
1963013S13149 1963 5 SP EA NOT_NAMED 1963-01-14 17:00:00 TS -19.2914 150.002 1001 bom main 168 168 ______O__PO___ SH161963 -1 -19.3000 150.000 1001 -19.2699 150.009 TC 30 1001 -19.3000 150.000 1 18 3 190
1963013S13149 1963 5 SP EA NOT_NAMED 1963-01-14 18:00:00 TS -19.3301 149.990 main 168 152 ______P__O____ -1 -19.3401 149.987 1001 -19.3000 150.000 TC 30 1001 1 2 199
1963013S13149 1963 5 SP EA NOT_NAMED 1963-01-14 21:00:00 NR -19.4412 149.937 main 152 145 ______P_______ -1 -19.4412 149.937 1001 TC 1 2 206
1963013S13149 1963 5 SP EA NOT_NAMED 1963-01-14 23:00:00 NR -19.5000 149.900 1002 bom main 145 ______O_______ -1 -19.5000 149.900 1002 TC 1 2 211

Digital Typhoon Data and Search

About IBTrACS Database

This database is a web-friendly format of International Best Track Archive for Climate Stewardship (IBTrACS), a global best track data archive curated by NOAA dating back to 1842.

Updated: 2021-10-08